CW1675 Weather Reports


time (UTC)temp
C
wind
direction
speed
KPH
gust
KPH
rain 1hr
cm
rain 24hr
cm
rain mn
cm
humidity
%
barometer
mb
20190420084457 16 320 3.2 8.0 0.00 0.00 0.00 41 1027.0
20190420082959 15 274 4.8 9.7 0.00 0.00 0.00 44 1028.0
20190420081457 14 206 1.6 3.2 0.00 0.00 0.00 46 1028.0
20190420075958 13 202 0.0 3.2 0.00 0.00 0.00 47 1028.0
20190420074457 12 202 0.0 1.6 0.00 0.00 0.00 49 1028.0
20190420074000 11 202 0.0 3.2 0.00 0.00 0.00 49 1028.0
20190420073457 11 202 1.6 1.6 0.00 0.00 0.00 50 1028.0
20190420071457 9 202 1.6 3.2 0.00 0.00 0.00 52 1027.0
20190420070959 8 180 0.0 1.6 0.00 0.00 0.00 53 1027.8
20190420070457 8 180 1.6 3.2 0.00 0.00 0.00 54 1028.0
20190420063457 7 0 0.0 0.0 0.00 0.00 0.00 54 1027.0
20190420063000 7 0 1.6 1.6 0.00 0.00 0.00 55 1027.0
20190420061458 6 0 0.0 0.0 0.00 0.00 0.00 60 1027.0
20190420061000 5 0 0.0 0.0 0.00 0.00 0.00 60 1027.0
20190420060457 4 0 0.0 0.0 0.00 0.00 0.00 60 1027.0
20190420055958 3 0 0.0 0.0 0.00 0.00 0.00 60 1027.0
20190420054000 2 0 0.0 0.0 0.00 0.00 0.00 57 1027.0
20190420051458 2 0 0.0 0.0 0.00 0.00 0.00 57 1027.0
20190420050458 2 0 0.0 0.0 0.00 0.00 0.00 56 1026.0
20190420045958 2 0 0.0 0.0 0.00 0.00 0.00 56 1026.0
20190420044458 2 0 0.0 0.0 0.00 0.00 0.00 55 1026.0
20190420042959 2 0 0.0 0.0 0.00 0.00 0.00 55 1026.0
20190420041458 2 0 0.0 0.0 0.00 0.00 0.00 55 1026.0
20190420040959 2 0 0.0 0.0 0.00 0.00 0.00 55 1026.7
20190420035957 2 0 0.0 0.0 0.00 0.00 0.00 55 1027.0
20190420033959 2 0 0.0 0.0 0.00 0.00 0.00 54 1026.8
20190420032959 2 0 0.0 0.0 0.00 0.00 0.00 54 1027.0
20190420031458 2 0 0.0 0.0 0.00 0.00 0.00 53 1027.0
20190420030959 2 0 0.0 0.0 0.00 0.00 0.00 53 1027.0
20190420030457 2 0 0.0 0.0 0.00 0.00 0.00 53 1027.0
20190420025958 2 0 0.0 0.0 0.00 0.00 0.00 53 1027.0
20190420024457 3 0 0.0 0.0 0.00 0.00 0.00 53 1027.0
20190420023458 3 0 0.0 0.0 0.00 0.00 0.00 52 1027.0
20190420022959 3 0 0.0 0.0 0.00 0.00 0.00 52 1027.0
20190420021459 3 0 0.0 0.0 0.00 0.00 0.00 52 1027.0
20190420021001 3 0 0.0 0.0 0.00 0.00 0.00 52 1027.0
20190420020458 3 0 0.0 0.0 0.00 0.00 0.00 52 1027.0
20190420015958 3 0 0.0 0.0 0.00 0.00 0.00 52 1027.0
20190420014457 3 0 0.0 0.0 0.00 0.00 0.00 52 1027.0
20190420014000 3 0 0.0 0.0 0.00 0.00 0.00 52 1027.0
20190420013457 3 0 0.0 0.0 0.00 0.00 0.00 51 1027.0
20190420012959 3 0 0.0 0.0 0.00 0.00 0.00 51 1027.0
20190420011457 3 0 0.0 0.0 0.00 0.00 0.00 51 1027.0
20190420010458 4 0 0.0 0.0 0.00 0.00 0.00 50 1026.0
20190420005958 4 0 0.0 0.0 0.00 0.00 0.00 51 1026.0
20190420003458 5 0 0.0 0.0 0.00 0.00 0.00 49 1027.0
20190420002959 5 0 1.6 3.2 0.00 0.00 0.00 49 1027.0
20190420001458 5 158 0.0 4.8 0.00 0.00 0.00 49 1027.0
20190420000959 5 127 4.8 8.0 0.00 0.00 0.00 49 1027.0
20190419235958 5 112 0.0 0.0 0.00 0.00 0.00 48 1027.0
20190419234458 5 112 0.0 0.0 0.00 0.00 0.00 46 1027.0
20190419233458 5 112 0.0 0.0 0.00 0.00 0.00 47 1027.0
20190419232959 5 112 0.0 0.0 0.00 0.00 0.00 46 1027.0
20190419231458 6 112 0.0 0.0 0.00 0.00 0.00 46 1027.0
20190419230458 6 112 0.0 0.0 0.00 0.00 0.00 44 1027.0
20190419225957 6 112 0.0 0.0 0.00 0.00 0.00 45 1027.0
20190419223959 7 112 0.0 0.0 0.00 0.00 0.00 44 1027.0
20190419223001 7 112 0.0 0.0 0.00 0.00 0.00 42 1027.0
20190419220457 7 112 0.0 0.0 0.00 0.00 0.00 40 1027.0
20190419214458 8 112 0.0 0.0 0.00 0.00 0.00 40 1027.0
20190419214000 7 112 0.0 0.0 0.00 0.00 0.00 39 1027.0
20190419213458 8 112 0.0 1.6 0.00 0.00 0.00 38 1027.0
20190419213000 8 112 0.0 1.6 0.00 0.00 0.00 38 1027.0
20190419211458 8 112 0.0 0.0 0.00 0.00 0.00 38 1027.0
20190419205958 9 112 0.0 0.0 0.00 0.00 0.00 37 1027.0
20190419204458 9 112 0.0 0.0 0.00 0.00 0.00 37 1027.0
20190419204000 10 112 0.0 0.0 0.00 0.00 0.00 36 1027.0
20190419203458 10 112 0.0 1.6 0.00 0.00 0.00 36 1027.0
20190419202959 10 112 0.0 3.2 0.00 0.00 0.00 36 1027.0
20190419201457 10 45 0.0 0.0 0.00 0.00 0.00 33 1026.0
20190419201000 11 45 0.0 0.0 0.00 0.00 0.00 33 1026.0
20190419200457 11 45 0.0 0.0 0.00 0.00 0.00 33 1026.0
20190419194509 12 45 0.0 0.0 0.00 0.00 0.00 30 1026.0
20190419194004 12 45 0.0 0.0 0.00 0.00 0.00 30 1026.0
20190419193458 12 45 0.0 0.0 0.00 0.00 0.00 30 1026.0
20190419192959 13 45 0.0 0.0 0.00 0.00 0.00 30 1026.0
20190419191458 13 45 0.0 0.0 0.00 0.00 0.00 29 1026.0
20190419191000 13 45 0.0 1.6 0.00 0.00 0.00 29 1026.0
20190419190458 14 45 1.6 1.6 0.00 0.00 0.00 29 1026.0
20190419184458 16 45 1.6 1.6 0.00 0.00 0.00 29 1027.0
20190419184000 16 45 1.6 1.6 0.00 0.00 0.00 29 1026.3
20190419183000 17 45 3.2 3.2 0.00 0.00 0.00 28 1026.0
20190419181458 18 45 3.2 3.2 0.00 0.00 0.00 28 1026.0
20190419173959 20 65 6.4 9.7 0.00 0.00 0.00 27 1025.0
20190419173459 20 49 6.4 12.9 0.00 0.00 0.00 27 1025.0
20190419173000 20 61 3.2 12.9 0.00 0.00 0.00 27 1025.0
20190419171501 20 32 4.8 11.3 0.00 0.00 0.00 27 1025.0
20190419171000 20 45 6.4 11.3 0.00 0.00 0.00 27 1025.0
20190419165959 20 3 4.8 11.3 0.00 0.00 0.00 27 1025.0
20190419163458 21 114 8.0 12.9 0.00 0.00 0.00 27 1025.0
20190419163000 21 72 4.8 11.3 0.00 0.00 0.00 27 1025.0
20190419161458 21 90 4.8 8.0 0.00 0.00 0.00 27 1024.0
20190419160458 21 88 9.7 16.1 0.00 0.00 0.00 27 1024.0
20190419153459 21 77 9.7 14.5 0.00 0.00 0.00 27 1024.0
20190419151459 22 61 8.0 12.9 0.00 0.00 0.00 26 1024.0
20190419151000 22 75 6.4 14.5 0.00 0.00 0.00 26 1024.0
20190419150458 22 40 4.8 14.5 0.00 0.00 0.00 26 1024.0
20190419145958 22 57 4.8 16.1 0.00 0.00 0.00 26 1024.0
20190419144459 22 94 4.8 14.5 0.00 0.00 0.00 26 1024.0
20190419144000 22 67 8.0 14.5 0.00 0.00 0.00 26 1024.0
20190419143458 22 82 6.4 12.9 0.00 0.00 0.00 26 1024.0
20190419143000 22 69 4.8 16.1 0.00 0.00 0.00 26 1024.0
20190419140959 22 80 9.7 14.5 0.00 0.00 0.00 26 1024.3
20190419135959 22 72 8.0 16.1 0.00 0.00 0.00 26 1024.0
20190419134459 22 57 8.0 16.1 0.00 0.00 0.00 26 1025.0
20190419134000 22 100 9.7 14.5 0.00 0.00 0.00 26 1025.0
20190419131458 22 207 3.2 8.0 0.00 0.00 0.00 26 1025.0
20190419130458 22 162 3.2 12.9 0.00 0.00 0.00 26 1025.0
20190419125958 22 87 11.3 19.3 0.00 0.00 0.00 26 1025.0
20190419124458 22 89 6.4 22.5 0.00 0.00 0.00 26 1026.0
20190419124001 22 120 14.5 24.1 0.00 0.00 0.00 26 1026.0
20190419123459 22 171 9.7 16.1 0.00 0.00 0.00 26 1026.0
20190419123000 22 156 16.1 22.5 0.00 0.00 0.00 26 1026.0
20190419121002 22 135 8.0 20.9 0.00 0.00 0.00 26 1025.0
20190419120458 22 166 3.2 16.1 0.00 0.00 0.00 26 1025.0
20190419114458 21 144 6.4 16.1 0.00 0.00 0.00 26 1025.0
20190419114000 21 94 11.3 24.1 0.00 0.00 0.00 26 1025.0
20190419113459 22 135 9.7 19.3 0.00 0.00 0.00 26 1025.0
20190419113000 21 88 9.7 20.9 0.00 0.00 0.00 26 1025.0
20190419111459 21 81 6.4 14.5 0.00 0.00 0.00 27 1025.0
20190419111000 21 133 6.4 12.9 0.00 0.00 0.00 27 1025.7
20190419110459 21 62 11.3 16.1 0.00 0.00 0.00 27 1026.0
20190419105959 21 50 11.3 16.1 0.00 0.00 0.00 27 1026.0
20190419104458 21 124 9.7 16.1 0.00 0.00 0.00 27 1026.0
20190419103000 21 88 14.5 22.5 0.00 0.00 0.00 27 1026.0
20190419093002 20 135 14.5 24.1 0.00 0.00 0.00 27 1026.0
20190419090507 18 108 6.4 14.5 0.00 0.00 0.00 28 1026.0